Time;durP1;ratioP1;P1;durP2;ratioP2;P2;SDS_P1;SDS_P2;PMS_P1;PMS_P2;Temp;Humidity;BMP_temperature;BMP_pressure;BME280_temperature;BME280_humidity;BME280_pressure;Samples;Min_cycle;Max_cycle;Signal;HPM_P1;HPM_P2
2023/08/27 00:01:14;;;;;;;8.73;7.88;;;14.70;57.00;;;;;;5101539;28;20424;-71
2023/08/27 00:03:39;;;;;;;8.47;7.60;;;14.60;57.30;;;;;;5103904;28;20388;-71
2023/08/27 00:06:05;;;;;;;9.40;8.30;;;14.60;57.70;;;;;;5099983;28;20475;-71
2023/08/27 00:08:31;;;;;;;10.63;7.93;;;14.60;58.00;;;;;;5103768;28;20412;-71
2023/08/27 00:11:00;;;;;;;9.25;8.25;;;14.60;58.30;;;;;;5100963;28;20456;-71
2023/08/27 00:13:26;;;;;;;10.27;7.93;;;14.60;58.30;;;;;;5086836;28;20996;-71
2023/08/27 00:15:52;;;;;;;11.48;8.68;;;14.60;58.30;;;;;;5098533;28;20432;-71
2023/08/27 00:18:18;;;;;;;9.43;8.43;;;14.50;58.50;;;;;;5107004;28;20474;-71
2023/08/27 00:20:47;;;;;;;10.47;8.77;;;14.50;59.00;;;;;;5105359;28;20405;-71
2023/08/27 00:23:13;;;;;;;10.85;9.32;;;14.50;59.00;;;;;;5106551;28;20472;-71
2023/08/27 00:25:39;;;;;;;10.50;9.10;;;14.50;59.00;;;;;;5106017;28;20523;-71
2023/08/27 00:28:06;;;;;;;10.57;9.48;;;14.50;60.00;;;;;;5105761;28;20939;-71
2023/08/27 00:30:32;;;;;;;10.30;9.23;;;14.50;60.30;;;;;;5083315;28;20788;-72
2023/08/27 00:32:57;;;;;;;11.23;10.13;;;14.40;61.50;;;;;;5084411;28;20418;-71
2023/08/27 00:35:23;;;;;;;11.07;9.97;;;14.40;61.50;;;;;;5091351;28;20402;-71
2023/08/27 00:37:49;;;;;;;11.30;10.18;;;14.40;62.10;;;;;;5087914;28;20408;-71
2023/08/27 00:40:15;;;;;;;11.32;10.07;;;14.40;62.90;;;;;;5096032;28;20398;-71
2023/08/27 00:42:41;;;;;;;11.87;10.50;;;14.30;62.60;;;;;;5089471;28;20435;-71
2023/08/27 00:45:08;;;;;;;11.30;10.10;;;14.30;63.60;;;;;;5089833;28;20536;-71
2023/08/27 00:47:35;;;;;;;11.05;9.85;;;14.30;63.50;;;;;;5096826;28;20495;-71
2023/08/27 00:50:02;;;;;;;10.52;9.43;;;14.30;64.20;;;;;;5092583;28;20445;-71
2023/08/27 00:52:28;;;;;;;11.52;10.40;;;14.30;64.10;;;;;;5093885;28;20426;-71
2023/08/27 00:54:55;;;;;;;10.77;9.68;;;14.30;64.10;;;;;;5094867;28;20428;-71
2023/08/27 00:57:21;;;;;;;10.87;9.77;;;14.30;64.00;;;;;;5093313;28;20851;-71
2023/08/27 00:59:48;;;;;;;11.68;9.65;;;14.30;64.20;;;;;;5094651;28;20904;-71
2023/08/27 01:02:15;;;;;;;11.40;9.43;;;14.30;64.30;;;;;;5092751;28;20398;-71
2023/08/27 01:04:40;;;;;;;10.30;9.30;;;14.20;64.40;;;;;;5096315;28;20495;-71
2023/08/27 01:07:19;;;;;;;11.63;9.90;;;14.30;64.10;;;;;;5092289;28;20406;-71
2023/08/27 01:10:10;;;;;;;12.35;10.07;;;14.20;64.30;;;;;;5095039;28;20475;-71
2023/08/27 01:12:42;;;;;;;10.80;9.70;;;14.20;64.90;;;;;;5080691;28;20434;-71
2023/08/27 01:15:08;;;;;;;11.77;10.27;;;14.20;64.80;;;;;;5094976;28;20421;-71
2023/08/27 01:17:35;;;;;;;11.50;10.32;;;14.20;65.00;;;;;;5093185;28;20896;-71
2023/08/27 01:20:01;;;;;;;11.52;9.85;;;14.10;65.40;;;;;;5090526;28;20907;-71
2023/08/27 01:22:28;;;;;;;11.50;9.98;;;14.10;65.70;;;;;;5093064;28;20401;-71
2023/08/27 01:24:54;;;;;;;11.45;10.25;;;14.10;66.00;;;;;;5093867;28;20407;-71
2023/08/27 01:27:32;;;;;;;11.00;9.80;;;14.10;66.20;;;;;;5074310;28;20429;-71
2023/08/27 01:30:20;;;;;;;11.82;10.13;;;14.10;66.30;;;;;;5092015;28;20386;-71
2023/08/27 01:32:51;;;;;;;12.68;10.50;;;14.10;67.10;;;;;;5092824;28;21221;-71
2023/08/27 01:35:17;;;;;;;12.43;10.43;;;14.10;67.20;;;;;;5100396;28;20972;-71
2023/08/27 01:37:44;;;;;;;12.00;10.50;;;14.10;67.80;;;;;;5091446;28;20867;-71
2023/08/27 01:40:10;;;;;;;14.10;10.77;;;14.10;68.80;;;;;;5081062;28;20463;-71
2023/08/27 01:42:36;;;;;;;11.80;10.60;;;14.00;68.70;;;;;;5093813;28;20472;-71
2023/08/27 01:45:06;;;;;;;12.18;10.98;;;14.10;69.80;;;;;;5091022;28;20416;-71
2023/08/27 01:47:32;;;;;;;12.23;10.63;;;14.10;70.30;;;;;;5091805;28;20544;-71
2023/08/27 01:49:58;;;;;;;16.87;11.07;;;14.00;70.50;;;;;;5091963;28;20489;-71
2023/08/27 01:52:23;;;;;;;11.60;10.50;;;14.10;70.10;;;;;;5092479;28;20488;-71
2023/08/27 01:54:49;;;;;;;12.27;10.98;;;14.00;69.90;;;;;;5091769;28;20409;-71
2023/08/27 01:57:14;;;;;;;13.47;10.90;;;14.10;71.00;;;;;;5091944;28;20398;-71
2023/08/27 01:59:40;;;;;;;11.63;10.50;;;14.10;71.10;;;;;;5089698;28;20405;-71
2023/08/27 02:02:06;;;;;;;12.10;10.80;;;14.00;71.50;;;;;;5092408;28;20479;-71
2023/08/27 02:04:31;;;;;;;11.63;10.43;;;14.00;71.30;;;;;;5091117;28;20427;-71
2023/08/27 02:06:57;;;;;;;12.10;10.33;;;14.00;72.10;;;;;;5091784;28;20944;-71
2023/08/27 02:09:22;;;;;;;11.57;10.38;;;14.00;72.10;;;;;;5091000;28;20398;-71
2023/08/27 02:11:49;;;;;;;11.97;10.73;;;14.00;72.10;;;;;;5091684;28;20401;-71
2023/08/27 02:14:15;;;;;;;12.38;10.75;;;14.00;72.00;;;;;;5090704;28;20737;-71
2023/08/27 02:16:41;;;;;;;11.50;10.30;;;14.00;71.90;;;;;;5091855;28;20405;-71
2023/08/27 02:19:06;;;;;;;11.98;10.68;;;14.00;71.80;;;;;;5090745;28;20397;-71
2023/08/27 02:21:32;;;;;;;12.13;10.87;;;14.00;71.90;;;;;;5092798;28;20397;-71
2023/08/27 02:23:58;;;;;;;12.75;10.98;;;14.00;71.90;;;;;;5090356;28;20394;-71
2023/08/27 02:26:23;;;;;;;11.67;10.47;;;14.00;72.30;;;;;;5089660;28;20452;-71
2023/08/27 02:28:49;;;;;;;11.85;10.57;;;14.00;72.60;;;;;;5089648;28;20401;-71
2023/08/27 02:31:15;;;;;;;11.60;10.43;;;14.10;72.90;;;;;;5089913;28;21013;-71
2023/08/27 02:33:40;;;;;;;12.18;10.65;;;14.10;73.10;;;;;;5098562;28;20494;-71
2023/08/27 02:36:06;;;;;;;11.37;10.20;;;14.10;72.80;;;;;;5091382;28;20810;-71
2023/08/27 02:38:33;;;;;;;12.73;10.57;;;14.10;72.70;;;;;;5098418;28;21104;-71
2023/08/27 02:40:58;;;;;;;11.97;10.40;;;14.10;72.60;;;;;;5090840;28;20412;-71
2023/08/27 02:43:24;;;;;;;12.95;10.65;;;14.00;72.80;;;;;;5090711;28;20429;-71
2023/08/27 02:45:50;;;;;;;12.67;10.60;;;14.10;72.90;;;;;;5090305;28;20420;-71
2023/08/27 02:48:16;;;;;;;12.00;10.32;;;14.00;72.60;;;;;;5090313;28;20461;-71
2023/08/27 02:50:41;;;;;;;13.88;11.40;;;14.00;73.50;;;;;;5091521;28;20432;-71
2023/08/27 02:53:07;;;;;;;13.57;11.40;;;14.00;73.10;;;;;;5088578;28;20434;-71
2023/08/27 02:55:33;;;;;;;12.10;10.33;;;14.00;73.20;;;;;;5089977;28;20471;-71
2023/08/27 02:57:59;;;;;;;14.43;11.05;;;14.00;73.10;;;;;;5089890;28;20406;-71
2023/08/27 03:00:25;;;;;;;12.45;10.65;;;14.00;73.20;;;;;;5091444;28;20970;-71
2023/08/27 03:02:51;;;;;;;12.38;11.18;;;13.90;72.90;;;;;;5090370;28;20432;-71
2023/08/27 03:05:17;;;;;;;12.70;10.60;;;13.90;73.00;;;;;;5091752;28;20432;-71
2023/08/27 03:07:43;;;;;;;13.53;11.23;;;13.90;73.30;;;;;;5090282;28;20401;-71
2023/08/27 03:10:09;;;;;;;13.00;11.57;;;13.90;74.00;;;;;;5089352;28;20396;-71
2023/08/27 03:12:35;;;;;;;13.90;11.80;;;13.80;73.90;;;;;;5089340;28;20429;-71
2023/08/27 03:15:00;;;;;;;13.83;11.80;;;13.90;74.30;;;;;;5089849;28;20479;-71
2023/08/27 03:17:26;;;;;;;13.20;11.57;;;13.90;74.70;;;;;;5089703;28;20427;-71
2023/08/27 03:19:51;;;;;;;14.43;11.77;;;13.90;74.90;;;;;;5089424;28;20951;-71
2023/08/27 03:22:17;;;;;;;15.88;11.88;;;13.90;74.60;;;;;;5089047;28;20473;-71
2023/08/27 03:24:43;;;;;;;14.85;11.70;;;13.80;74.70;;;;;;5088604;28;20784;-71
2023/08/27 03:27:09;;;;;;;12.97;11.60;;;13.80;75.00;;;;;;5089261;28;20429;-71
2023/08/27 03:29:34;;;;;;;15.23;11.60;;;13.80;74.80;;;;;;5089294;28;20539;-71
2023/08/27 03:32:00;;;;;;;13.77;11.30;;;13.80;75.30;;;;;;5087185;28;21173;-71
2023/08/27 03:34:26;;;;;;;13.25;11.27;;;13.70;75.50;;;;;;5088502;28;20409;-71
2023/08/27 03:36:51;;;;;;;14.43;11.97;;;13.70;75.40;;;;;;5088625;28;20405;-71
2023/08/27 03:39:17;;;;;;;13.75;12.18;;;13.70;75.60;;;;;;5088866;28;20398;-70
2023/08/27 03:41:42;;;;;;;16.03;12.13;;;13.70;76.30;;;;;;5088980;28;20486;-70
2023/08/27 03:44:08;;;;;;;13.63;12.18;;;13.70;76.20;;;;;;5091212;28;20450;-70
2023/08/27 03:46:34;;;;;;;13.53;12.13;;;13.70;76.30;;;;;;5090095;28;20396;-70
2023/08/27 03:49:00;;;;;;;13.52;11.95;;;13.70;76.50;;;;;;5089367;28;20449;-70
2023/08/27 03:51:28;;;;;;;14.88;12.20;;;13.60;76.80;;;;;;5089568;28;20407;-70
2023/08/27 03:53:55;;;;;;;13.18;11.77;;;13.70;77.00;;;;;;5087351;28;20428;-70
2023/08/27 03:56:21;;;;;;;14.82;12.73;;;13.60;77.00;;;;;;5088531;28;20409;-70
2023/08/27 03:58:47;;;;;;;16.03;12.30;;;13.60;77.50;;;;;;5088089;28;20400;-70
2023/08/27 04:01:13;;;;;;;13.20;11.82;;;13.60;77.20;;;;;;5088796;28;20405;-70
2023/08/27 04:03:38;;;;;;;15.57;12.57;;;13.60;77.30;;;;;;5089704;28;20480;-70
2023/08/27 04:06:07;;;;;;;13.30;11.85;;;13.60;77.30;;;;;;5088902;28;20409;-70
2023/08/27 04:08:33;;;;;;;14.20;12.10;;;13.60;77.20;;;;;;5089000;28;20394;-70
2023/08/27 04:11:00;;;;;;;14.67;12.27;;;13.60;77.30;;;;;;5089037;28;20477;-70
2023/08/27 04:13:26;;;;;;;14.05;12.40;;;13.60;77.20;;;;;;5088551;28;20445;-70
2023/08/27 04:16:18;;;;;;;16.13;11.98;;;13.60;77.50;;;;;;5089171;28;20868;-70
2023/08/27 04:18:43;;;;;;;16.05;12.93;;;13.60;77.80;;;;;;5087218;28;20406;-70
2023/08/27 04:21:09;;;;;;;14.52;12.98;;;13.50;77.40;;;;;;5090143;28;20406;-71
2023/08/27 04:23:34;;;;;;;14.30;12.67;;;13.50;77.50;;;;;;5098130;28;20400;-70
2023/08/27 04:26:03;;;;;;;13.93;12.43;;;13.50;77.70;;;;;;5111820;28;20767;-70
2023/08/27 04:28:29;;;;;;;15.25;13.15;;;13.50;77.90;;;;;;5111220;28;20407;-70
2023/08/27 04:30:55;;;;;;;13.93;12.52;;;13.50;77.20;;;;;;5110646;27;20467;-70
2023/08/27 04:33:20;;;;;;;14.90;13.05;;;13.50;77.90;;;;;;5104421;28;20521;-70
2023/08/27 04:35:49;;;;;;;15.13;12.77;;;13.50;78.50;;;;;;5104035;28;20820;-70
2023/08/27 04:38:16;;;;;;;15.40;12.85;;;13.50;78.30;;;;;;5071376;28;20807;-70
2023/08/27 04:40:41;;;;;;;14.75;12.32;;;13.50;78.60;;;;;;5088743;28;20439;-70
2023/08/27 04:43:07;;;;;;;13.68;12.25;;;13.50;78.60;;;;;;5091396;28;20394;-70
2023/08/27 04:45:32;;;;;;;13.93;12.47;;;13.50;78.70;;;;;;5092246;28;20447;-71
2023/08/27 04:47:58;;;;;;;15.15;12.18;;;13.40;79.00;;;;;;5082836;28;20531;-70
2023/08/27 04:50:24;;;;;;;13.07;11.67;;;13.40;79.30;;;;;;5095775;28;20931;-70
2023/08/27 04:52:49;;;;;;;13.52;12.05;;;13.40;79.50;;;;;;5094013;28;20448;-70
2023/08/27 04:55:15;;;;;;;13.37;11.90;;;13.50;79.70;;;;;;5096629;28;20402;-70
2023/08/27 04:57:40;;;;;;;13.55;12.13;;;13.50;80.00;;;;;;5093104;28;20903;-70
2023/08/27 05:00:08;;;;;;;13.07;11.70;;;13.50;80.00;;;;;;5093577;28;20409;-70
2023/08/27 05:02:38;;;;;;;15.15;11.52;;;13.60;80.20;;;;;;5081605;28;20422;-70
2023/08/27 05:05:04;;;;;;;14.38;11.90;;;13.60;80.30;;;;;;5094192;28;20406;-70
2023/08/27 05:07:29;;;;;;;12.82;11.52;;;13.70;80.40;;;;;;5093020;28;20635;-70
2023/08/27 05:09:55;;;;;;;14.53;11.53;;;13.70;80.60;;;;;;5094029;28;20787;-70
2023/08/27 05:12:21;;;;;;;11.93;10.73;;;13.80;80.50;;;;;;5092846;28;20456;-70
2023/08/27 05:14:46;;;;;;;12.27;10.50;;;13.80;80.30;;;;;;5094194;28;20398;-70
2023/08/27 05:17:12;;;;;;;12.70;11.30;;;13.80;80.20;;;;;;5092624;28;20441;-70
2023/08/27 05:19:38;;;;;;;13.40;10.87;;;13.80;80.00;;;;;;5093574;28;20402;-70
2023/08/27 05:22:04;;;;;;;12.35;11.05;;;13.90;80.00;;;;;;5092255;28;20757;-70
2023/08/27 05:24:29;;;;;;;11.87;10.67;;;13.90;79.80;;;;;;5092687;28;20440;-70
2023/08/27 05:26:55;;;;;;;12.40;11.02;;;13.90;79.30;;;;;;5091886;28;20497;-70
2023/08/27 05:29:21;;;;;;;12.40;10.80;;;13.90;78.90;;;;;;5090653;28;20398;-70
2023/08/27 05:31:47;;;;;;;12.45;10.85;;;13.80;78.80;;;;;;5109418;28;20769;-70
2023/08/27 05:34:12;;;;;;;13.27;10.52;;;13.80;78.50;;;;;;5108894;28;20403;-70
2023/08/27 05:36:38;;;;;;;12.87;11.40;;;13.80;78.50;;;;;;5109430;28;20941;-70
2023/08/27 05:39:05;;;;;;;11.73;10.32;;;13.80;78.40;;;;;;5107132;28;20400;-70
2023/08/27 05:41:31;;;;;;;12.70;10.43;;;13.80;78.80;;;;;;5092124;28;20790;-71
2023/08/27 05:43:57;;;;;;;11.93;10.73;;;13.80;78.90;;;;;;5092060;28;20432;-70
2023/08/27 05:46:23;;;;;;;11.67;10.07;;;13.80;78.70;;;;;;5073634;28;20895;-70
2023/08/27 05:48:48;;;;;;;11.05;9.90;;;13.80;78.70;;;;;;5094096;28;20402;-70
2023/08/27 05:51:14;;;;;;;10.88;9.70;;;13.80;78.60;;;;;;5092281;28;20405;-70
2023/08/27 05:53:39;;;;;;;14.07;10.63;;;13.80;78.40;;;;;;5093489;28;20430;-70
2023/08/27 05:56:05;;;;;;;13.18;10.20;;;13.80;78.10;;;;;;5079361;28;20406;-70
2023/08/27 05:58:31;;;;;;;11.40;10.20;;;13.80;78.40;;;;;;5093118;28;20407;-70
2023/08/27 06:00:56;;;;;;;10.68;9.50;;;13.80;78.70;;;;;;5080709;28;20394;-70
2023/08/27 06:03:22;;;;;;;10.67;9.57;;;13.80;79.00;;;;;;5092972;28;20394;-70
2023/08/27 06:05:48;;;;;;;10.38;9.30;;;13.90;79.60;;;;;;5102027;27;20465;-70
2023/08/27 06:08:14;;;;;;;10.32;9.07;;;14.00;80.00;;;;;;5090603;28;20405;-70
2023/08/27 06:10:40;;;;;;;10.50;9.33;;;14.10;80.60;;;;;;5091203;28;20410;-70
2023/08/27 06:13:06;;;;;;;11.70;8.88;;;14.20;80.70;;;;;;5090183;28;20558;-71
2023/08/27 06:15:34;;;;;;;9.73;8.10;;;14.30;81.30;;;;;;5090451;28;20492;-70
2023/08/27 06:18:03;;;;;;;8.38;7.57;;;14.50;81.40;;;;;;5089577;28;20448;-70
2023/08/27 06:20:29;;;;;;;10.20;7.97;;;14.60;80.60;;;;;;5090598;28;20394;-70
2023/08/27 06:22:54;;;;;;;10.35;7.90;;;14.70;80.60;;;;;;5090082;28;20527;-70
2023/08/27 06:25:22;;;;;;;8.70;7.30;;;14.90;80.40;;;;;;5089644;28;20518;-71
2023/08/27 06:27:48;;;;;;;8.83;7.63;;;15.00;79.70;;;;;;5091080;28;20752;-70
2023/08/27 06:30:13;;;;;;;7.82;6.90;;;15.10;79.10;;;;;;5089445;28;20406;-71
2023/08/27 06:32:39;;;;;;;7.45;6.30;;;15.20;78.40;;;;;;5089628;28;20834;-71
2023/08/27 06:35:05;;;;;;;7.47;6.47;;;15.20;75.80;;;;;;5090312;28;20390;-71
2023/08/27 06:37:31;;;;;;;8.50;6.53;;;15.20;75.50;;;;;;5091045;28;20979;-71
2023/08/27 06:39:56;;;;;;;7.40;5.97;;;15.30;75.10;;;;;;5088827;28;20425;-71
2023/08/27 06:42:22;;;;;;;6.85;6.15;;;15.30;75.30;;;;;;5092651;28;20414;-71
2023/08/27 06:44:47;;;;;;;7.33;6.07;;;15.30;75.10;;;;;;5091015;28;20397;-71
2023/08/27 06:47:13;;;;;;;6.68;5.95;;;15.30;74.30;;;;;;5092111;28;20410;-71
2023/08/27 06:49:39;;;;;;;7.57;5.90;;;15.30;73.20;;;;;;5090525;28;20854;-71
2023/08/27 06:52:05;;;;;;;7.65;6.38;;;15.40;73.30;;;;;;5090052;28;20425;-71
2023/08/27 06:54:30;;;;;;;7.75;6.43;;;15.40;73.10;;;;;;5088612;28;20429;-71
2023/08/27 06:56:56;;;;;;;8.77;6.70;;;15.40;73.30;;;;;;5089531;28;20398;-71
2023/08/27 06:59:21;;;;;;;6.95;6.25;;;15.30;73.10;;;;;;5089298;28;20405;-71
2023/08/27 07:01:47;;;;;;;8.00;6.60;;;15.40;72.80;;;;;;5090168;28;20526;-71
2023/08/27 07:04:13;;;;;;;9.23;6.60;;;15.30;72.80;;;;;;5089116;28;20458;-71
2023/08/27 07:06:39;;;;;;;7.97;6.83;;;15.30;72.80;;;;;;5088105;28;20409;-71
2023/08/27 07:09:05;;;;;;;7.78;6.75;;;15.30;73.00;;;;;;5088488;28;20394;-71
2023/08/27 07:11:31;;;;;;;10.02;7.07;;;15.20;73.10;;;;;;5088573;28;20409;-71
2023/08/27 07:13:57;;;;;;;9.00;7.40;;;15.20;73.70;;;;;;5088327;28;21252;-71
2023/08/27 07:16:23;;;;;;;11.57;8.20;;;15.20;74.50;;;;;;5101781;28;20538;-72
2023/08/27 07:18:48;;;;;;;11.10;7.43;;;15.20;74.70;;;;;;5095551;28;20399;-71
2023/08/27 07:21:14;;;;;;;11.60;7.90;;;15.10;74.90;;;;;;5107318;28;20488;-71
2023/08/27 07:23:39;;;;;;;12.23;7.90;;;15.10;75.50;;;;;;5107203;28;20400;-71
2023/08/27 07:26:05;;;;;;;10.90;7.88;;;15.10;75.90;;;;;;5106802;28;20397;-72
2023/08/27 07:28:31;;;;;;;11.80;8.57;;;15.00;76.40;;;;;;5107122;28;20994;-71
2023/08/27 07:30:57;;;;;;;11.45;8.15;;;15.00;77.10;;;;;;5106816;28;20414;-71
2023/08/27 07:33:22;;;;;;;11.45;7.28;;;15.00;77.30;;;;;;5106376;28;20436;-71
2023/08/27 07:35:48;;;;;;;10.90;7.67;;;15.00;77.90;;;;;;5094162;28;20426;-71
2023/08/27 07:38:14;;;;;;;9.98;7.22;;;15.00;78.90;;;;;;5092907;28;20392;-72
2023/08/27 07:40:40;;;;;;;9.13;6.95;;;15.00;79.20;;;;;;5094923;28;20398;-71
2023/08/27 07:43:06;;;;;;;9.82;7.15;;;15.00;79.80;;;;;;5088399;28;20405;-71
2023/08/27 07:45:32;;;;;;;9.27;6.70;;;15.00;79.90;;;;;;5089109;28;20401;-71
2023/08/27 07:47:58;;;;;;;8.65;6.30;;;15.10;80.10;;;;;;5089919;28;20493;-71
2023/08/27 07:50:25;;;;;;;8.97;5.90;;;15.10;79.60;;;;;;5091441;28;20953;-71
2023/08/27 07:52:51;;;;;;;8.65;5.90;;;15.10;79.50;;;;;;5086542;28;20425;-72
2023/08/27 07:55:16;;;;;;;7.72;6.20;;;15.00;80.00;;;;;;5089548;28;20410;-71
2023/08/27 07:57:42;;;;;;;8.77;5.30;;;15.00;79.80;;;;;;5088457;28;20398;-71
2023/08/27 08:00:08;;;;;;;8.45;5.20;;;15.00;78.70;;;;;;5090639;28;20424;-71
2023/08/27 08:02:34;;;;;;;8.77;5.68;;;15.00;79.40;;;;;;5088991;28;20416;-71
2023/08/27 08:05:01;;;;;;;8.53;5.70;;;15.00;80.00;;;;;;5085834;28;20409;-72
2023/08/27 08:07:27;;;;;;;6.95;5.40;;;15.00;80.20;;;;;;5083021;28;20798;-71
2023/08/27 08:09:53;;;;;;;6.30;5.45;;;15.00;80.80;;;;;;5087615;28;20402;-71
2023/08/27 08:12:19;;;;;;;9.63;5.93;;;15.10;80.80;;;;;;5086765;28;20428;-71
2023/08/27 08:14:45;;;;;;;7.20;5.38;;;15.10;81.50;;;;;;5083962;28;20490;-71
2023/08/27 08:17:11;;;;;;;5.50;4.43;;;15.20;80.90;;;;;;5088659;28;20816;-72
2023/08/27 08:19:37;;;;;;;5.07;3.20;;;15.30;81.20;;;;;;5089289;28;20899;-71
2023/08/27 08:22:03;;;;;;;3.45;2.47;;;15.30;80.00;;;;;;5088859;28;20489;-71
2023/08/27 08:24:29;;;;;;;3.80;2.07;;;15.40;77.50;;;;;;5085652;28;20496;-72
2023/08/27 08:26:55;;;;;;;4.00;1.70;;;15.50;76.50;;;;;;5089571;28;20398;-72
2023/08/27 08:29:21;;;;;;;3.47;1.75;;;15.50;75.30;;;;;;5089743;28;20417;-72
2023/08/27 08:31:48;;;;;;;3.08;1.10;;;15.60;73.30;;;;;;5087229;28;20422;-72
2023/08/27 08:34:14;;;;;;;2.85;1.50;;;15.60;72.30;;;;;;5086846;28;20422;-72
2023/08/27 08:36:40;;;;;;;2.42;1.35;;;15.70;73.00;;;;;;5090335;28;20393;-72
2023/08/27 08:39:05;;;;;;;3.05;1.50;;;15.80;72.70;;;;;;5080639;28;20394;-72
2023/08/27 08:41:36;;;;;;;2.77;1.20;;;16.00;73.00;;;;;;5090478;28;20489;-72
2023/08/27 08:44:11;;;;;;;3.30;1.63;;;16.10;70.90;;;;;;5094656;28;20411;-72
2023/08/27 08:46:38;;;;;;;3.90;1.63;;;16.20;68.90;;;;;;5087375;28;20978;-72
2023/08/27 08:49:08;;;;;;;2.53;1.53;;;16.30;69.20;;;;;;5090100;28;20435;-72
2023/08/27 08:51:34;;;;;;;3.60;1.90;;;16.40;69.40;;;;;;5089308;28;20393;-72
2023/08/27 08:54:04;;;;;;;4.28;1.83;;;16.40;69.30;;;;;;5090543;28;20525;-72
2023/08/27 08:56:37;;;;;;;2.08;1.20;;;16.60;68.40;;;;;;5087643;28;20414;-72
2023/08/27 08:59:04;;;;;;;3.08;1.40;;;16.70;63.20;;;;;;5086709;28;20467;-72
2023/08/27 09:01:30;;;;;;;3.40;1.40;;;16.70;64.00;;;;;;5087851;28;20430;-72
2023/08/27 09:03:56;;;;;;;2.63;1.17;;;16.90;65.90;;;;;;5087008;28;20390;-72
2023/08/27 09:06:23;;;;;;;2.95;1.33;;;17.00;64.60;;;;;;5085802;28;21083;-72
2023/08/27 09:08:50;;;;;;;3.35;0.93;;;17.10;63.30;;;;;;5090723;28;20776;-72
2023/08/27 09:11:18;;;;;;;1.70;0.90;;;17.20;61.80;;;;;;5097067;28;20406;-72
2023/08/27 09:13:44;;;;;;;3.33;1.25;;;17.30;61.30;;;;;;5083938;28;20530;-72
2023/08/27 09:16:10;;;;;;;4.30;1.30;;;17.40;59.50;;;;;;5101845;28;20839;-72
2023/08/27 09:18:36;;;;;;;3.38;1.20;;;17.50;59.00;;;;;;5108122;28;20396;-72
2023/08/27 09:21:02;;;;;;;3.03;1.30;;;17.60;58.90;;;;;;5098938;28;20407;-72
2023/08/27 09:23:28;;;;;;;3.25;0.80;;;17.80;58.90;;;;;;5094537;28;20913;-72
2023/08/27 09:25:58;;;;;;;2.83;0.93;;;18.20;61.70;;;;;;5096604;28;20394;-72
2023/08/27 09:28:24;;;;;;;2.80;0.90;;;18.90;58.90;;;;;;5100856;28;20408;-72
2023/08/27 09:30:51;;;;;;;2.22;0.70;;;19.50;46.50;;;;;;5094498;28;20501;-72
2023/08/27 09:33:16;;;;;;;1.70;0.80;;;19.90;34.50;;;;;;5074428;28;20475;-72
2023/08/27 09:35:42;;;;;;;1.77;0.85;;;20.30;34.60;;;;;;5097062;28;20910;-72
2023/08/27 09:38:13;;;;;;;3.28;1.15;;;20.80;25.50;;;;;;5106172;28;20400;-72
2023/08/27 09:40:40;;;;;;;3.20;0.90;;;21.00;15.70;;;;;;5076274;28;20430;-72
2023/08/27 09:43:08;;;;;;;2.63;0.80;;;21.10;12.90;;;;;;5090187;28;20944;-72
2023/08/27 09:45:34;;;;;;;1.73;0.60;;;21.30;15.80;;;;;;5089258;28;20410;-71
2023/08/27 09:48:00;;;;;;;2.45;0.82;;;21.40;3.90;;;;;;5089221;28;21349;-70
2023/08/27 09:50:29;;;;;;;1.67;0.60;;;21.60;8.20;;;;;;5098784;28;20481;-72
2023/08/27 09:53:16;;;;;;;2.08;0.82;;;22.00;9.30;;;;;;5090264;28;20421;-71
2023/08/27 09:55:42;;;;;;;1.70;0.60;;;22.20;1.00;;;;;;5088706;28;20418;-72
2023/08/27 09:58:09;;;;;;;3.22;0.70;;;22.10;1.00;;;;;;5088695;28;20417;-73
2023/08/27 10:00:36;;;;;;;2.67;0.77;;;22.10;1.00;;;;;;5098625;28;20475;-72
2023/08/27 10:03:02;;;;;;;2.23;0.70;;;22.30;1.00;;;;;;5090555;28;20402;-72
2023/08/27 10:05:32;;;;;;;1.83;0.70;;;22.30;1.00;;;;;;5088233;28;20422;-73
2023/08/27 10:08:00;;;;;;;2.67;0.60;;;22.40;1.00;;;;;;5087225;28;20418;-72
2023/08/27 10:10:27;;;;;;;1.80;0.60;;;22.60;1.00;;;;;;5075211;28;20441;-73
2023/08/27 10:12:54;;;;;;;1.65;0.80;;;22.70;1.00;;;;;;5098393;28;20429;-72
2023/08/27 10:15:20;;;;;;;2.10;0.90;;;22.70;1.00;;;;;;5088846;28;21119;-72
2023/08/27 10:17:46;;;;;;;2.40;0.80;;;22.60;1.00;;;;;;5098161;28;20408;-72
2023/08/27 10:20:11;;;;;;;1.90;0.80;;;22.50;1.00;;;;;;5094242;28;20422;-73
2023/08/27 10:22:37;;;;;;;1.63;0.82;;;22.40;1.00;;;;;;5098214;28;20393;-72
2023/08/27 10:25:06;;;;;;;2.10;0.70;;;22.30;1.00;;;;;;5093469;28;20390;-72
2023/08/27 10:27:33;;;;;;;1.53;0.70;;;22.50;1.00;;;;;;5097050;28;20398;-73
2023/08/27 10:30:00;;;;;;;1.40;0.60;;;23.20;1.00;;;;;;5093636;28;20428;-72
2023/08/27 10:32:25;;;;;;;1.63;0.60;;;23.10;1.00;;;;;;5095687;28;20426;-72
2023/08/27 10:34:52;;;;;;;1.90;0.80;;;23.10;1.00;;;;;;5091732;28;20458;-73
2023/08/27 10:37:20;;;;;;;1.70;0.70;;;23.00;1.00;;;;;;5084950;28;20472;-72
2023/08/27 10:39:48;;;;;;;2.05;0.80;;;22.90;1.00;;;;;;5082478;28;20396;-73
2023/08/27 10:42:33;;;;;;;1.95;0.70;;;22.90;1.00;;;;;;5086656;28;20439;-72
2023/08/27 10:45:26;;;;;;;2.45;0.70;;;22.60;1.00;;;;;;5107975;28;20483;-72
2023/08/27 10:48:18;;;;;;;2.25;0.60;;;22.40;1.00;;;;;;5069358;28;20396;-73
2023/08/27 10:51:06;;;;;;;2.10;0.50;;;22.90;1.00;;;;;;5095507;28;20463;-73
2023/08/27 10:53:47;;;;;;;1.50;0.60;;;23.60;1.00;;;;;;5105576;28;20929;-72
2023/08/27 10:56:37;;;;;;;1.90;0.55;;;23.90;1.00;;;;;;5106620;28;20400;-73
2023/08/27 10:59:03;;;;;;;2.38;0.60;;;24.30;1.00;;;;;;5075145;28;20410;-72
2023/08/27 11:01:34;;;;;;;1.00;0.33;;;24.80;1.00;;;;;;5099819;28;20423;-73
2023/08/27 11:04:01;;;;;;;1.83;0.40;;;25.30;1.00;;;;;;5105696;28;20434;-73
2023/08/27 11:06:48;;;;;;;1.75;0.50;;;25.60;1.00;;;;;;5091718;27;20409;-72
2023/08/27 11:09:24;;;;;;;1.75;0.55;;;26.00;1.00;;;;;;5089022;28;20400;-73
2023/08/27 11:12:03;;;;;;;1.30;0.40;;;26.30;99.90;;;;;;5102839;28;20419;-73
2023/08/27 11:14:35;;;;;;;1.15;0.40;;;26.40;99.90;;;;;;5103820;28;20410;-73
2023/08/27 11:17:05;;;;;;;1.30;0.50;;;26.10;99.90;;;;;;5103846;28;20436;-73
2023/08/27 11:19:36;;;;;;;0.98;0.38;;;25.80;99.90;;;;;;5101317;28;20397;-73
2023/08/27 11:22:14;;;;;;;1.60;0.50;;;26.00;99.90;;;;;;5094596;28;20440;-73
2023/08/27 11:24:45;;;;;;;4.55;1.35;;;26.40;99.90;;;;;;5100603;28;20425;-73
2023/08/27 11:27:12;;;;;;;1.80;0.60;;;26.30;99.90;;;;;;5104355;28;21479;-73
2023/08/27 11:29:42;;;;;;;1.35;0.38;;;25.80;99.90;;;;;;5098186;28;20462;-73
2023/08/27 11:32:09;;;;;;;1.15;0.40;;;25.10;99.90;;;;;;5102354;28;20766;-72
2023/08/27 11:34:37;;;;;;;1.48;0.30;;;24.40;99.90;;;;;;5098499;28;20398;-72
2023/08/27 11:37:04;;;;;;;1.15;0.40;;;23.90;99.90;;;;;;5102794;28;20480;-72
2023/08/27 11:39:30;;;;;;;1.37;0.40;;;23.50;99.90;;;;;;5089887;28;20403;-72
2023/08/27 11:41:55;;;;;;;2.72;0.70;;;23.20;1.00;;;;;;5094042;28;20392;-72
2023/08/27 11:44:21;;;;;;;2.72;0.50;;;22.90;1.00;;;;;;5098983;28;20406;-72
2023/08/27 11:46:47;;;;;;;2.17;0.57;;;22.70;1.00;;;;;;5087513;28;20398;-72
2023/08/27 11:49:14;;;;;;;1.70;0.70;;;22.40;1.00;;;;;;5086480;28;20507;-72
2023/08/27 11:51:43;;;;;;;2.80;0.80;;;22.30;1.00;;;;;;5087813;28;20398;-72
2023/08/27 11:54:10;;;;;;;2.60;0.80;;;22.30;1.00;;;;;;5087160;28;20532;-72
2023/08/27 11:56:37;;;;;;;2.15;0.70;;;22.40;1.00;;;;;;5087302;28;20412;-72
2023/08/27 11:59:04;;;;;;;2.63;0.90;;;22.40;1.00;;;;;;5087944;28;20410;-72
2023/08/27 12:01:30;;;;;;;2.03;1.00;;;22.20;1.00;;;;;;5087343;28;20406;-72
2023/08/27 12:03:56;;;;;;;2.88;0.70;;;22.00;1.00;;;;;;5094935;28;20483;-72
2023/08/27 12:06:30;;;;;;;1.40;0.65;;;22.20;1.00;;;;;;5105581;28;20486;-72
2023/08/27 12:08:56;;;;;;;1.73;0.57;;;22.50;1.00;;;;;;5106666;28;20747;-73
2023/08/27 12:11:27;;;;;;;1.55;0.70;;;22.90;1.00;;;;;;5105759;28;20436;-72
2023/08/27 12:14:00;;;;;;;2.00;0.98;;;22.90;1.00;;;;;;5105946;28;20538;-72
2023/08/27 12:16:30;;;;;;;2.13;0.80;;;22.90;1.00;;;;;;5104824;28;20449;-72
2023/08/27 12:19:08;;;;;;;2.63;1.00;;;22.90;1.00;;;;;;5105405;28;20472;-72
2023/08/27 12:21:57;;;;;;;2.25;1.00;;;22.90;1.00;;;;;;5101609;28;20491;-72
2023/08/27 12:24:30;;;;;;;3.17;1.10;;;22.70;1.00;;;;;;5083959;28;20413;-72
2023/08/27 12:27:00;;;;;;;3.45;1.10;;;22.40;1.00;;;;;;5105325;28;20392;-72
2023/08/27 12:29:27;;;;;;;6.45;2.60;;;22.20;1.00;;;;;;5099249;28;20409;-72
2023/08/27 12:31:53;;;;;;;1.90;0.70;;;22.00;1.00;;;;;;5093864;28;20454;-72
2023/08/27 12:34:30;;;;;;;6.50;1.27;;;21.70;1.00;;;;;;5099530;28;20434;-73
2023/08/27 12:36:56;;;;;;;4.68;0.93;;;21.10;1.00;;;;;;5087130;28;20506;-72
2023/08/27 12:39:21;;;;;;;4.83;0.90;;;20.30;1.00;;;;;;5093776;28;20468;-71
2023/08/27 12:41:47;;;;;;;4.40;0.90;;;19.70;1.00;;;;;;5093636;28;20402;-72